Time;durP1;ratioP1;P1;durP2;ratioP2;P2;SDS_P1;SDS_P2;PMS_P1;PMS_P2;Temp;Humidity;BMP_temperature;BMP_pressure;BME280_temperature;BME280_humidity;BME280_pressure;Samples;Min_cycle;Max_cycle;Signal;HPM_P1;HPM_P2
2022/02/04 00:01:15;;;;;;;3.55;1.50;;;9.40;99.90;;;;;;5060816;28;20108;-58
2022/02/04 00:27:50;;;;;;;2.40;1.30;;;9.60;99.90;;;;;;5043518;28;20041;-59
2022/02/04 00:30:24;;;;;;;3.70;1.20;;;9.60;99.90;;;;;;5048594;28;20954;-58
2022/02/04 00:32:53;;;;;;;3.08;0.82;;;9.60;99.90;;;;;;5053282;28;20071;-57
2022/02/04 00:37:59;;;;;;;3.17;0.90;;;9.60;99.90;;;;;;5054096;28;20501;-58
2022/02/04 00:40:29;;;;;;;2.63;1.20;;;9.60;99.90;;;;;;5051560;28;20345;-58
2022/02/04 00:42:59;;;;;;;1.83;0.70;;;9.60;99.90;;;;;;5055481;28;20143;-57
2022/02/04 00:45:34;;;;;;;1.90;0.75;;;9.60;99.90;;;;;;5050485;28;20108;-58
2022/02/04 00:48:39;;;;;;;1.40;0.60;;;9.70;99.90;;;;;;5043086;28;20191;-58
2022/02/04 01:26:09;;;;;;;1.48;0.60;;;9.60;99.90;;;;;;5060359;28;20080;-58
2022/02/04 01:28:38;;;;;;;3.38;1.10;;;9.60;99.90;;;;;;5057472;28;20155;-59
2022/02/04 01:31:05;;;;;;;1.23;0.60;;;9.70;99.90;;;;;;5058619;28;20101;-58
2022/02/04 01:33:32;;;;;;;1.98;0.65;;;9.70;99.90;;;;;;5054073;28;20131;-58
2022/02/04 01:35:59;;;;;;;1.55;0.70;;;9.60;99.90;;;;;;5056536;28;20114;-58
2022/02/04 01:38:27;;;;;;;1.58;0.60;;;9.70;99.90;;;;;;5060955;28;20643;-57
2022/02/04 01:40:55;;;;;;;3.70;0.63;;;9.70;99.90;;;;;;5063339;28;20105;-58
2022/02/04 01:43:22;;;;;;;1.95;0.60;;;9.60;99.90;;;;;;5062243;28;20079;-58
2022/02/04 01:45:50;;;;;;;0.88;0.50;;;9.60;99.90;;;;;;5062786;28;20516;-58
2022/02/04 01:48:17;;;;;;;2.75;0.88;;;9.70;99.90;;;;;;5060851;28;20084;-58
2022/02/04 01:50:47;;;;;;;1.50;0.60;;;9.70;99.90;;;;;;5062646;28;20119;-59
2022/02/04 01:53:15;;;;;;;1.83;0.70;;;9.70;99.90;;;;;;5062872;28;20391;-58
2022/02/04 01:55:42;;;;;;;1.98;0.65;;;9.70;99.90;;;;;;5061563;28;20099;-59
2022/02/04 01:58:09;;;;;;;2.90;0.80;;;9.70;99.90;;;;;;5062744;28;20127;-59
2022/02/04 02:00:37;;;;;;;3.90;0.90;;;9.70;99.90;;;;;;5060118;28;20203;-58
2022/02/04 02:03:04;;;;;;;1.77;0.70;;;9.70;99.90;;;;;;5059259;28;20103;-59
2022/02/04 02:05:32;;;;;;;1.65;0.77;;;9.70;99.90;;;;;;5060762;28;20053;-59
2022/02/04 02:08:09;;;;;;;1.17;0.75;;;9.70;99.90;;;;;;5062672;28;20044;-58
2022/02/04 02:10:36;;;;;;;3.40;0.82;;;9.70;99.90;;;;;;5044975;28;20480;-58
2022/02/04 02:43:20;;;;;;;1.92;0.60;;;9.70;99.90;;;;;;5062362;28;20080;-59
2022/02/04 02:48:44;;;;;;;1.90;0.70;;;9.70;99.90;;;;;;5062693;28;20136;-58
2022/02/04 03:01:20;;;;;;;1.25;0.70;;;9.40;99.90;;;;;;5060365;28;20076;-59
2022/02/04 03:03:52;;;;;;;1.25;0.60;;;9.40;99.90;;;;;;5061563;28;20151;-59
2022/02/04 03:06:19;;;;;;;0.50;0.50;;;9.40;99.90;;;;;;5063640;28;20557;-59
2022/02/04 03:08:46;;;;;;;2.63;0.73;;;9.40;99.90;;;;;;5063676;28;20091;-59
2022/02/04 03:11:13;;;;;;;3.63;1.30;;;9.40;99.90;;;;;;5063461;28;20076;-59
2022/02/04 03:13:42;;;;;;;2.42;0.77;;;9.40;99.90;;;;;;5061529;28;20103;-59
2022/02/04 03:16:14;;;;;;;2.80;0.95;;;9.30;99.90;;;;;;5063838;28;20044;-59
2022/02/04 03:18:43;;;;;;;1.23;0.70;;;9.40;99.90;;;;;;5061333;28;20483;-59
2022/02/04 03:21:16;;;;;;;1.75;0.70;;;9.30;99.90;;;;;;5063693;28;20047;-59
2022/02/04 03:23:49;;;;;;;1.08;0.60;;;9.40;99.90;;;;;;5062917;28;20452;-59
2022/02/04 03:26:28;;;;;;;4.20;1.10;;;9.40;99.90;;;;;;5062246;28;20547;-59
2022/02/04 03:28:55;;;;;;;2.65;0.63;;;9.40;99.90;;;;;;5059048;28;20118;-59
2022/02/04 03:34:02;;;;;;;2.50;0.80;;;9.30;99.90;;;;;;5056080;28;20462;-59
2022/02/04 03:36:29;;;;;;;0.65;0.55;;;9.30;99.90;;;;;;5037074;28;20069;-58
2022/02/04 03:38:56;;;;;;;3.10;0.77;;;9.20;99.90;;;;;;5039124;28;20136;-58
2022/02/04 03:41:23;;;;;;;1.08;0.57;;;9.20;99.90;;;;;;5039497;28;20131;-59
2022/02/04 03:43:50;;;;;;;1.25;0.77;;;9.20;99.90;;;;;;5037512;28;20151;-59
2022/02/04 03:46:17;;;;;;;1.85;0.70;;;9.20;99.90;;;;;;5035811;28;20136;-59
2022/02/04 03:48:44;;;;;;;2.28;0.90;;;9.30;99.90;;;;;;5038294;28;20076;-59
2022/02/04 03:51:11;;;;;;;3.65;1.00;;;9.30;99.90;;;;;;5039842;28;20155;-59
2022/02/04 03:53:37;;;;;;;2.17;0.60;;;9.40;99.90;;;;;;5039238;28;20842;-59
2022/02/04 03:56:04;;;;;;;2.30;0.90;;;9.40;99.90;;;;;;5058813;28;20132;-59
2022/02/04 03:58:36;;;;;;;3.90;0.80;;;9.40;99.90;;;;;;5056748;28;20135;-59
2022/02/04 04:01:05;;;;;;;2.40;0.90;;;9.40;99.90;;;;;;5038104;28;20080;-59
2022/02/04 04:03:32;;;;;;;2.30;0.70;;;9.30;99.90;;;;;;5038488;28;20067;-59
2022/02/04 04:05:59;;;;;;;2.38;0.93;;;9.40;99.90;;;;;;5040542;28;20140;-59
2022/02/04 04:08:26;;;;;;;4.85;2.05;;;9.40;99.90;;;;;;5038827;28;20083;-57
2022/02/04 04:10:53;;;;;;;6.95;1.00;;;9.40;99.90;;;;;;5038294;28;20144;-60
2022/02/04 04:13:20;;;;;;;3.65;0.90;;;9.40;99.90;;;;;;5038382;28;20136;-59
2022/02/04 04:15:47;;;;;;;2.95;0.98;;;9.50;99.90;;;;;;5033449;28;20088;-59
2022/02/04 04:18:14;;;;;;;4.10;1.35;;;9.50;99.90;;;;;;5018842;28;20084;-58
2022/02/04 04:20:42;;;;;;;5.70;1.52;;;9.50;99.90;;;;;;5019363;28;20128;-59
2022/02/04 04:23:09;;;;;;;3.40;1.02;;;9.50;99.90;;;;;;5018821;28;20085;-58
2022/02/04 04:25:36;;;;;;;4.03;1.02;;;9.50;99.90;;;;;;5017045;28;20545;-59
2022/02/04 04:28:02;;;;;;;5.15;1.33;;;9.50;99.90;;;;;;5019047;28;20140;-58
2022/02/04 04:30:29;;;;;;;5.60;1.35;;;9.50;99.90;;;;;;5015384;28;20505;-59
2022/02/04 04:32:57;;;;;;;3.95;1.20;;;9.50;99.90;;;;;;5017721;28;20136;-59
2022/02/04 04:35:25;;;;;;;4.95;1.30;;;9.50;99.90;;;;;;5019052;28;20413;-59
2022/02/04 05:29:32;;;;;;;2.22;0.82;;;9.70;99.90;;;;;;5002652;28;20225;-59
2022/02/04 05:31:59;;;;;;;4.40;1.20;;;9.60;99.90;;;;;;5005014;28;20484;-59
2022/02/04 05:34:26;;;;;;;4.20;1.70;;;9.60;99.90;;;;;;5003867;28;20604;-59
2022/02/04 05:37:03;;;;;;;3.05;0.90;;;9.60;99.90;;;;;;5004246;28;20185;-59
2022/02/04 05:39:37;;;;;;;5.38;1.73;;;9.60;99.90;;;;;;5007800;28;20136;-59
2022/02/04 05:42:06;;;;;;;2.90;1.15;;;9.60;99.90;;;;;;5005506;28;20105;-59
2022/02/04 05:44:38;;;;;;;3.63;1.10;;;9.60;99.90;;;;;;5010852;28;20152;-59
2022/02/04 05:47:13;;;;;;;4.90;1.15;;;9.60;99.90;;;;;;5023812;28;20085;-59
2022/02/04 05:49:46;;;;;;;2.80;1.23;;;9.60;99.90;;;;;;5025264;28;20183;-59
2022/02/04 05:52:21;;;;;;;3.60;1.00;;;9.50;99.90;;;;;;5018248;28;20073;-59
2022/02/04 05:57:39;;;;;;;3.35;1.00;;;9.50;99.90;;;;;;5003120;28;20054;-58
2022/02/04 06:00:29;;;;;;;4.63;1.35;;;9.50;99.90;;;;;;4986916;28;20077;-59
2022/02/04 06:10:56;;;;;;;3.53;1.02;;;9.40;99.90;;;;;;5003279;28;20137;-59
2022/02/04 06:23:59;;;;;;;4.63;1.58;;;9.40;99.90;;;;;;5000293;28;20448;-59
2022/02/04 06:26:25;;;;;;;6.18;2.15;;;9.40;99.90;;;;;;5002502;28;20077;-59
2022/02/04 06:28:52;;;;;;;5.32;1.40;;;9.30;99.90;;;;;;5000565;28;20132;-59
2022/02/04 06:31:20;;;;;;;3.70;1.30;;;9.30;99.90;;;;;;5001224;28;20085;-58
2022/02/04 06:33:47;;;;;;;5.53;1.10;;;9.30;99.90;;;;;;4996176;28;20561;-59
2022/02/04 06:36:14;;;;;;;4.85;1.50;;;9.30;99.90;;;;;;5002508;28;20136;-59
2022/02/04 06:38:41;;;;;;;3.95;1.40;;;9.30;99.90;;;;;;4999735;28;20161;-58
2022/02/04 06:41:07;;;;;;;4.07;1.05;;;9.30;99.90;;;;;;4997359;28;20061;-58
2022/02/04 06:43:35;;;;;;;5.18;1.35;;;9.30;99.90;;;;;;4999576;28;20176;-58
2022/02/04 06:46:02;;;;;;;6.93;1.85;;;9.40;99.90;;;;;;4999667;28;20662;-58
2022/02/04 06:48:29;;;;;;;4.53;1.95;;;9.40;99.90;;;;;;5000104;28;20112;-58
2022/02/04 06:50:56;;;;;;;3.20;1.33;;;9.40;99.90;;;;;;4997813;28;20046;-58
2022/02/04 06:53:23;;;;;;;6.85;1.83;;;9.40;99.90;;;;;;5001804;28;20433;-59
2022/02/04 06:55:50;;;;;;;6.95;1.95;;;9.40;99.90;;;;;;5002647;28;20108;-59
2022/02/04 06:58:16;;;;;;;4.10;1.30;;;9.40;99.90;;;;;;5001366;28;20513;-58
2022/02/04 07:00:43;;;;;;;4.95;1.23;;;9.40;99.90;;;;;;5016403;28;20132;-58
2022/02/04 07:03:10;;;;;;;8.52;1.75;;;9.40;99.90;;;;;;4998221;28;20120;-59
2022/02/04 07:05:53;;;;;;;5.70;1.65;;;9.40;99.90;;;;;;5000892;28;20085;-58
2022/02/04 07:09:09;;;;;;;8.77;1.80;;;9.50;99.90;;;;;;4996136;28;20301;-58
2022/02/04 07:14:28;;;;;;;5.13;1.60;;;9.60;99.90;;;;;;5002050;28;20140;-58
2022/02/04 07:19:48;;;;;;;6.25;2.20;;;9.60;99.90;;;;;;5003862;28;20986;-58
2022/02/04 07:22:20;;;;;;;9.48;2.05;;;9.60;99.90;;;;;;5001340;28;20057;-59
2022/02/04 07:24:53;;;;;;;7.20;1.77;;;9.60;99.90;;;;;;4996565;28;20181;-58
2022/02/04 07:27:20;;;;;;;5.88;1.85;;;9.60;99.90;;;;;;4979081;28;20414;-58
2022/02/04 07:29:48;;;;;;;10.00;2.28;;;9.60;99.90;;;;;;4977416;28;20232;-58
2022/02/04 07:32:24;;;;;;;7.28;2.00;;;9.60;99.90;;;;;;4984259;28;20050;-58
2022/02/04 07:42:54;;;;;;;8.45;2.10;;;9.60;99.90;;;;;;4988266;28;20603;-58
2022/02/04 07:45:21;;;;;;;8.32;2.05;;;9.60;99.90;;;;;;4996622;28;20085;-57
2022/02/04 07:47:49;;;;;;;10.55;2.67;;;9.60;99.90;;;;;;4996109;28;20257;-58
2022/02/04 07:50:20;;;;;;;8.00;1.80;;;9.60;99.90;;;;;;4996449;28;20093;-58
2022/02/04 07:52:50;;;;;;;6.32;1.90;;;9.70;99.90;;;;;;4987959;28;20077;-58
2022/02/04 07:55:16;;;;;;;5.78;1.70;;;9.70;99.90;;;;;;4991881;28;20046;-58
2022/02/04 07:57:44;;;;;;;6.78;2.13;;;9.70;99.90;;;;;;4981822;28;20852;-58
2022/02/04 08:00:14;;;;;;;10.52;3.10;;;9.70;99.90;;;;;;4992098;28;20081;-58
2022/02/04 08:02:41;;;;;;;11.70;2.85;;;9.70;99.90;;;;;;4988685;28;20112;-58
2022/02/04 08:05:11;;;;;;;6.28;2.05;;;9.70;99.90;;;;;;4995856;28;20129;-58
2022/02/04 08:07:48;;;;;;;8.43;2.00;;;9.80;99.90;;;;;;5015008;28;20131;-58
2022/02/04 08:48:56;;;;;;;11.00;2.50;;;9.20;99.90;;;;;;4985167;28;20517;-59
2022/02/04 08:51:42;;;;;;;6.57;1.98;;;9.10;99.90;;;;;;4993631;28;20066;-58
2022/02/04 08:54:17;;;;;;;12.07;2.10;;;9.10;99.90;;;;;;4990997;28;20132;-58
2022/02/04 08:56:52;;;;;;;5.97;1.90;;;9.10;99.90;;;;;;4992017;28;20137;-58
2022/02/04 08:59:37;;;;;;;6.93;2.00;;;9.10;99.90;;;;;;4993688;28;20138;-58
2022/02/04 09:02:19;;;;;;;11.95;2.50;;;9.10;99.90;;;;;;4995009;28;20576;-59
2022/02/04 09:04:49;;;;;;;7.43;1.70;;;9.10;99.90;;;;;;4990843;28;20073;-59
2022/02/04 09:07:19;;;;;;;4.00;1.30;;;8.90;99.90;;;;;;4992234;28;20088;-60
2022/02/04 09:16:56;;;;;;;2.83;1.00;;;7.40;99.90;;;;;;4997482;28;20062;-59
2022/02/04 09:18:36;;;;;;;0.98;0.50;;;6.40;99.90;;;;;;4994737;28;20417;-58
2022/02/04 09:23:26;;;;;;;1.00;0.67;;;5.90;99.90;;;;;;4996721;28;20141;-58
2022/02/04 09:25:53;;;;;;;0.50;0.50;;;5.60;99.90;;;;;;4990955;28;20136;-59
2022/02/04 09:28:20;;;;;;;1.58;0.50;;;5.60;99.90;;;;;;4987019;28;20081;-58
2022/02/04 09:30:47;;;;;;;2.20;0.80;;;5.50;99.90;;;;;;4990992;28;20136;-60
2022/02/04 09:33:14;;;;;;;1.70;0.95;;;5.50;99.90;;;;;;5006991;28;20600;-60
2022/02/04 09:35:43;;;;;;;1.83;1.00;;;5.50;99.90;;;;;;5001537;28;20132;-60
2022/02/04 09:38:09;;;;;;;0.93;0.50;;;5.50;99.90;;;;;;5000864;28;20085;-59
2022/02/04 09:40:50;;;;;;;0.82;0.60;;;5.50;99.90;;;;;;5001498;28;20123;-59
2022/02/04 09:43:17;;;;;;;1.42;0.85;;;5.50;99.90;;;;;;4998722;28;20547;-57
2022/02/04 09:45:45;;;;;;;1.10;0.65;;;5.30;99.90;;;;;;4995504;28;20120;-59
2022/02/04 09:48:13;;;;;;;1.65;0.63;;;5.20;99.90;;;;;;4993667;28;20093;-59
2022/02/04 09:50:44;;;;;;;1.20;0.50;;;4.90;99.90;;;;;;4988928;28;20477;-60
2022/02/04 10:16:23;;;;;;;1.63;0.77;;;4.00;99.90;;;;;;5009393;28;20131;-59
2022/02/04 10:19:12;;;;;;;;;;;4.00;99.90;;;;;;5019143;28;20252;-60
2022/02/04 10:21:39;;;;;;;2.55;0.90;;;4.00;99.90;;;;;;5019298;28;19964;-59
2022/02/04 10:24:08;;;;;;;2.08;0.90;;;3.90;99.90;;;;;;4999052;28;20077;-60
2022/02/04 10:26:35;;;;;;;1.08;0.68;;;3.90;99.90;;;;;;5002614;28;20125;-60
2022/02/04 10:29:02;;;;;;;1.33;0.60;;;4.00;99.90;;;;;;5018220;28;20076;-60
2022/02/04 10:31:29;;;;;;;1.17;0.70;;;4.10;99.90;;;;;;5018190;28;20049;-59
2022/02/04 10:34:09;;;;;;;1.73;0.98;;;4.20;99.90;;;;;;5000152;28;20058;-59
2022/02/04 10:36:52;;;;;;;1.30;0.80;;;4.20;99.90;;;;;;4999691;28;20080;-60
2022/02/04 10:50:49;;;;;;;1.45;0.70;;;4.20;99.90;;;;;;4992089;28;20172;-58
2022/02/04 11:01:14;;;;;;;0.73;0.57;;;4.40;99.90;;;;;;4993715;28;20415;-58
2022/02/04 11:03:50;;;;;;;0.45;0.45;;;4.30;99.90;;;;;;4988438;28;20158;-58
2022/02/04 11:09:21;;;;;;;1.45;0.73;;;4.20;99.90;;;;;;4980843;28;20097;-58
2022/02/04 11:32:03;;;;;;;1.00;0.80;;;4.50;99.90;;;;;;4993144;28;20394;-59
2022/02/04 11:34:43;;;;;;;1.27;0.85;;;4.60;99.90;;;;;;4987131;28;20161;-59
2022/02/04 11:52:05;;;;;;;2.00;1.23;;;4.70;99.90;;;;;;4994852;28;20069;-59
2022/02/04 11:57:04;;;;;;;2.22;1.20;;;4.80;99.90;;;;;;5002489;28;20344;-59
2022/02/04 11:59:39;;;;;;;1.50;1.20;;;4.80;99.90;;;;;;5000992;28;20054;-59
2022/02/04 12:02:31;;;;;;;3.05;1.33;;;4.80;99.90;;;;;;4990841;28;20092;-58
2022/02/04 12:05:15;;;;;;;1.88;0.98;;;4.90;99.90;;;;;;4999333;28;20121;-59
2022/02/04 12:07:42;;;;;;;2.42;1.35;;;5.00;99.90;;;;;;4991699;28;20078;-59
2022/02/04 12:10:12;;;;;;;2.30;1.60;;;5.00;99.90;;;;;;4992917;28;20088;-59
2022/02/04 12:13:08;;;;;;;2.70;1.50;;;5.00;99.90;;;;;;4999514;28;20523;-59
2022/02/04 12:16:07;;;;;;;3.10;1.70;;;5.10;99.90;;;;;;4985543;28;20046;-58
2022/02/04 12:18:43;;;;;;;3.13;1.90;;;5.30;99.90;;;;;;4985601;28;20107;-58
2022/02/04 12:21:16;;;;;;;3.65;1.55;;;5.20;99.90;;;;;;4988569;28;20089;-59
2022/02/04 12:23:46;;;;;;;3.85;1.77;;;5.20;99.90;;;;;;4996856;28;20077;-58
2022/02/04 12:26:30;;;;;;;2.40;1.52;;;5.20;99.90;;;;;;4998281;28;20090;-58
2022/02/04 12:29:03;;;;;;;1.60;1.35;;;5.30;99.90;;;;;;4985528;28;20133;-58
2022/02/04 12:31:33;;;;;;;3.38;1.63;;;5.50;99.90;;;;;;4996143;28;20158;-58
2022/02/04 12:34:15;;;;;;;2.03;1.30;;;5.50;99.90;;;;;;4990974;28;20415;-58
2022/02/04 12:36:55;;;;;;;2.13;1.50;;;5.50;99.90;;;;;;5011542;28;20104;-58
2022/02/04 12:39:22;;;;;;;1.88;1.40;;;5.40;99.90;;;;;;5013206;28;20054;-58
2022/02/04 12:41:52;;;;;;;3.50;1.60;;;5.50;99.90;;;;;;4998458;28;20092;-58
2022/02/04 12:44:36;;;;;;;3.72;1.92;;;5.50;99.90;;;;;;5000932;28;20141;-58
2022/02/04 12:47:05;;;;;;;1.48;1.20;;;5.70;99.90;;;;;;4998882;28;20093;-58
2022/02/04 12:49:33;;;;;;;3.35;1.48;;;5.80;99.90;;;;;;4999040;28;20517;-58
2022/02/04 12:52:16;;;;;;;1.77;1.10;;;6.00;99.90;;;;;;4991838;28;20080;-56
2022/02/04 12:55:02;;;;;;;2.10;1.30;;;6.20;99.90;;;;;;5001147;28;20140;-58
2022/02/04 13:08:35;;;;;;;2.28;0.90;;;6.00;99.90;;;;;;4999781;28;20132;-57
2022/02/04 13:11:07;;;;;;;2.70;1.05;;;6.10;99.90;;;;;;5001412;28;20145;-58
2022/02/04 13:13:48;;;;;;;2.47;1.20;;;6.20;99.90;;;;;;4998032;28;20626;-58
2022/02/04 13:16:28;;;;;;;2.95;1.00;;;6.20;99.90;;;;;;4981782;28;20963;-57
2022/02/04 13:18:59;;;;;;;1.25;0.70;;;6.40;99.90;;;;;;4980157;28;20510;-58
2022/02/04 13:21:26;;;;;;;2.42;0.90;;;6.50;99.90;;;;;;4980358;28;20352;-58
2022/02/04 13:23:53;;;;;;;3.53;0.80;;;6.50;99.90;;;;;;4994406;28;20088;-58
2022/02/04 13:26:29;;;;;;;1.92;0.80;;;6.50;99.90;;;;;;4992187;28;20445;-59
2022/02/04 13:28:57;;;;;;;1.80;0.90;;;6.40;99.90;;;;;;5014646;28;20061;-58
2022/02/04 13:31:25;;;;;;;2.38;1.05;;;6.40;99.90;;;;;;5015642;28;20505;-58
2022/02/04 13:33:53;;;;;;;2.13;0.70;;;6.50;99.90;;;;;;4998976;28;20093;-58
2022/02/04 13:36:27;;;;;;;2.55;1.00;;;6.70;99.90;;;;;;5001161;28;20125;-58
2022/02/04 13:39:11;;;;;;;2.35;1.10;;;6.80;99.90;;;;;;4997382;28;20275;-58
2022/02/04 13:58:13;;;;;;;3.45;1.33;;;8.10;99.90;;;;;;4991978;28;20049;-58
2022/02/04 14:03:36;;;;;;;3.20;1.30;;;8.60;99.90;;;;;;5000142;28;20041;-58
2022/02/04 14:06:11;;;;;;;3.10;1.02;;;9.00;99.90;;;;;;5020052;28;20543;-58
2022/02/04 14:09:05;;;;;;;3.95;1.10;;;9.10;99.90;;;;;;4994168;28;20073;-58
2022/02/04 14:11:38;;;;;;;;;;;9.20;99.90;;;;;;4998608;28;20146;-58
2022/02/04 14:14:31;;;;;;;2.90;1.10;;;8.70;99.90;;;;;;4989914;28;19972;-57
2022/02/04 14:17:01;;;;;;;1.77;0.77;;;8.40;99.90;;;;;;4996567;28;20132;-58
2022/02/04 14:19:28;;;;;;;1.85;0.82;;;8.20;99.90;;;;;;4992181;28;20112;-58
2022/02/04 14:21:57;;;;;;;2.80;1.30;;;8.20;99.90;;;;;;4995796;28;20050;-57
2022/02/04 14:24:24;;;;;;;2.63;1.15;;;8.30;99.90;;;;;;4994416;28;20567;-59
2022/02/04 14:26:51;;;;;;;3.15;0.88;;;8.30;99.90;;;;;;4997751;28;20579;-58
2022/02/04 14:29:47;;;;;;;3.92;1.20;;;8.30;99.90;;;;;;4996320;28;20050;-56
2022/02/04 14:32:24;;;;;;;3.50;1.00;;;8.20;99.90;;;;;;4991930;28;20057;-58
2022/02/04 14:37:49;;;;;;;2.63;1.02;;;8.90;99.90;;;;;;5007498;28;20141;-56
2022/02/04 14:54:05;;;;;;;1.60;1.00;;;9.90;99.90;;;;;;5003135;28;20136;-58
2022/02/04 15:00:03;;;;;;;3.53;1.23;;;10.10;99.90;;;;;;5003843;28;20073;-58
2022/02/04 15:02:11;;;;;;;5.55;1.40;;;9.60;99.90;;;;;;5001429;28;20144;-57
2022/02/04 15:07:06;;;;;;;2.78;1.30;;;9.20;99.90;;;;;;5006419;28;20401;-58
2022/02/04 15:09:36;;;;;;;2.22;0.95;;;9.20;99.90;;;;;;5002560;28;20111;-58
2022/02/04 15:12:03;;;;;;;2.97;1.33;;;9.00;99.90;;;;;;5005615;28;20218;-57
2022/02/04 15:14:30;;;;;;;3.33;1.10;;;8.70;99.90;;;;;;5005800;28;20045;-57
2022/02/04 15:16:57;;;;;;;3.22;1.20;;;8.60;99.90;;;;;;4999288;28;20606;-58
2022/02/04 15:19:24;;;;;;;4.45;1.15;;;8.50;99.90;;;;;;5005438;28;20113;-57
2022/02/04 15:21:53;;;;;;;3.08;1.00;;;8.30;99.90;;;;;;5003108;28;20139;-57
2022/02/04 15:24:20;;;;;;;3.55;1.10;;;8.30;99.90;;;;;;5002223;28;20084;-58
2022/02/04 15:26:47;;;;;;;3.55;0.90;;;8.20;99.90;;;;;;4997102;28;20102;-58
2022/02/04 15:29:17;;;;;;;4.57;0.95;;;8.60;99.90;;;;;;5005991;28;20068;-58
2022/02/04 15:31:49;;;;;;;4.13;1.30;;;9.30;99.90;;;;;;5016097;28;20547;-59
2022/02/04 15:34:17;;;;;;;3.90;1.13;;;9.80;99.90;;;;;;5000958;28;20885;-58
2022/02/04 15:36:46;;;;;;;4.03;1.40;;;9.90;99.90;;;;;;4999186;28;20614;-58
2022/02/04 15:39:16;;;;;;;2.58;1.42;;;10.10;99.90;;;;;;4998059;28;20081;-59
2022/02/04 15:41:50;;;;;;;2.80;1.15;;;10.30;99.90;;;;;;4998546;28;20128;-58
2022/02/04 16:04:44;;;;;;;3.13;1.00;;;8.50;99.90;;;;;;4996989;28;20499;-58
2022/02/04 16:07:13;;;;;;;4.22;1.30;;;8.50;99.90;;;;;;4998012;28;20108;-59
2022/02/04 16:09:40;;;;;;;3.22;1.10;;;8.40;99.90;;;;;;4997170;28;20140;-59
2022/02/04 16:12:18;;;;;;;2.60;1.50;;;8.50;99.90;;;;;;4998144;28;20081;-58
2022/02/04 16:15:01;;;;;;;3.83;1.20;;;8.30;99.90;;;;;;4995920;28;20176;-59
2022/02/04 16:17:32;;;;;;;3.60;1.20;;;8.10;99.90;;;;;;4997602;28;20135;-59
2022/02/04 16:22:56;;;;;;;4.53;1.27;;;7.90;99.90;;;;;;4996064;28;20717;-58
2022/02/04 16:30:41;;;;;;;2.67;1.30;;;7.90;99.90;;;;;;4996496;28;20485;-57
2022/02/04 16:33:09;;;;;;;3.58;1.25;;;7.90;99.90;;;;;;4996254;28;20157;-57
2022/02/04 16:35:35;;;;;;;3.17;1.00;;;7.80;99.90;;;;;;4995198;28;20141;-59
2022/02/04 16:38:04;;;;;;;2.05;0.75;;;7.80;99.90;;;;;;4997857;28;20140;-58
2022/02/04 16:40:34;;;;;;;2.45;1.15;;;7.80;99.90;;;;;;4999181;28;20124;-58
2022/02/04 16:43:01;;;;;;;2.70;1.10;;;7.70;99.90;;;;;;5000463;28;20137;-58
2022/02/04 16:45:28;;;;;;;4.07;1.58;;;7.60;99.90;;;;;;4998484;28;20085;-58
2022/02/04 16:47:57;;;;;;;1.88;0.90;;;7.60;99.90;;;;;;4991533;28;20451;-58
2022/02/04 16:50:23;;;;;;;2.08;1.10;;;7.50;99.90;;;;;;4998629;28;20076;-58
2022/02/04 16:52:51;;;;;;;2.63;1.17;;;7.50;99.90;;;;;;4999313;28;20540;-58
2022/02/04 16:55:19;;;;;;;1.98;0.90;;;7.40;99.90;;;;;;4990880;28;20137;-58
2022/02/04 16:57:47;;;;;;;1.65;0.75;;;7.40;99.90;;;;;;4988951;28;20173;-59
2022/02/04 17:00:25;;;;;;;1.98;0.90;;;7.40;99.90;;;;;;4986951;28;20050;-58
2022/02/04 17:02:58;;;;;;;2.75;1.25;;;7.40;99.90;;;;;;5000444;28;20054;-57
2022/02/04 17:05:33;;;;;;;3.88;1.60;;;7.30;99.90;;;;;;4999599;28;20140;-58
2022/02/04 17:08:06;;;;;;;2.28;1.00;;;7.30;99.90;;;;;;4998216;28;20074;-58
2022/02/04 17:10:35;;;;;;;3.83;1.13;;;7.20;99.90;;;;;;4992820;28;20137;-58
2022/02/04 17:13:03;;;;;;;2.28;1.00;;;7.20;99.90;;;;;;4999427;28;20077;-55
2022/02/04 17:15:31;;;;;;;3.10;1.30;;;7.10;99.90;;;;;;4995911;28;20567;-58
2022/02/04 17:18:00;;;;;;;3.60;1.67;;;7.10;99.90;;;;;;4975387;28;20058;-57
2022/02/04 17:20:26;;;;;;;2.55;1.00;;;7.10;99.90;;;;;;4978376;28;20156;-58
2022/02/04 17:22:54;;;;;;;3.42;1.80;;;7.00;99.90;;;;;;4995897;28;20151;-58
2022/02/04 17:25:28;;;;;;;5.10;1.50;;;7.00;99.90;;;;;;4993000;28;20074;-58
2022/02/04 17:27:56;;;;;;;3.80;1.20;;;6.90;99.90;;;;;;4989416;28;20046;-55
2022/02/04 17:30:24;;;;;;;6.15;1.15;;;6.90;99.90;;;;;;4988250;28;20306;-57
2022/02/04 17:32:51;;;;;;;2.45;1.30;;;6.90;99.90;;;;;;4988995;28;20382;-57
2022/02/04 17:35:19;;;;;;;4.55;1.02;;;6.90;99.90;;;;;;4985309;28;20137;-58
2022/02/04 17:37:46;;;;;;;3.00;0.90;;;6.90;99.90;;;;;;4986199;28;20153;-58
2022/02/04 17:40:14;;;;;;;3.10;1.00;;;6.90;99.90;;;;;;4986509;28;20042;-59
2022/02/04 17:42:43;;;;;;;1.85;1.00;;;6.80;99.90;;;;;;5001782;28;20141;-60
2022/02/04 17:45:11;;;;;;;2.50;0.95;;;6.80;99.90;;;;;;5003764;28;20053;-60
2022/02/04 17:47:39;;;;;;;2.70;1.00;;;6.80;99.90;;;;;;4990683;28;20128;-57
2022/02/04 17:50:14;;;;;;;4.70;1.33;;;6.80;99.90;;;;;;4985991;28;20087;-59
2022/02/04 17:52:54;;;;;;;2.33;1.05;;;6.70;99.90;;;;;;4987745;28;20084;-59
2022/02/04 17:55:27;;;;;;;3.72;1.35;;;6.70;99.90;;;;;;4990581;28;20796;-57
2022/02/04 17:58:18;;;;;;;;;;;6.70;99.90;;;;;;4991661;28;20501;-57
2022/02/04 18:05:14;;;;;;;1.90;0.93;;;6.60;99.90;;;;;;4994666;28;20061;-59
2022/02/04 18:09:04;;;;;;;4.50;1.27;;;6.60;99.90;;;;;;4975897;28;20169;-59
2022/02/04 18:11:31;;;;;;;2.65;0.80;;;6.50;99.90;;;;;;4990944;28;20049;-59
2022/02/04 18:13:58;;;;;;;2.55;0.80;;;6.50;99.90;;;;;;4990855;28;20115;-58
2022/02/04 18:16:29;;;;;;;1.77;0.88;;;6.50;99.90;;;;;;4987005;28;20042;-57
2022/02/04 18:18:55;;;;;;;4.10;0.88;;;6.50;99.90;;;;;;4988925;28;20140;-55
2022/02/04 18:21:23;;;;;;;4.15;1.15;;;6.50;99.90;;;;;;4987868;28;20165;-58
2022/02/04 18:23:50;;;;;;;3.10;1.00;;;6.40;99.90;;;;;;4996576;28;20057;-58
2022/02/04 18:26:16;;;;;;;4.22;0.90;;;6.40;99.90;;;;;;4997630;28;20081;-57
2022/02/04 18:28:43;;;;;;;2.53;0.90;;;6.40;99.90;;;;;;4997193;28;20554;-57
2022/02/04 18:31:10;;;;;;;3.40;1.23;;;6.40;99.90;;;;;;4995357;28;20165;-58
2022/02/04 18:33:37;;;;;;;3.92;0.93;;;6.40;99.90;;;;;;4996612;28;20054;-58
2022/02/04 18:36:04;;;;;;;2.50;1.00;;;6.40;99.90;;;;;;4998170;28;20088;-58
2022/02/04 18:38:36;;;;;;;2.60;1.05;;;6.30;99.90;;;;;;4998287;28;20165;-58
2022/02/04 18:48:53;;;;;;;3.28;1.30;;;6.20;99.90;;;;;;4988744;28;20165;-58
2022/02/04 18:51:44;;;;;;;2.35;1.00;;;6.20;99.90;;;;;;4999595;28;20153;-58
2022/02/04 18:57:06;;;;;;;3.13;1.80;;;6.20;99.90;;;;;;4996541;28;20149;-56
2022/02/04 19:00:00;;;;;;;4.72;1.48;;;6.20;99.90;;;;;;5003870;28;20048;-57
2022/02/04 19:02:30;;;;;;;2.42;1.10;;;6.20;99.90;;;;;;4996105;28;20073;-58
2022/02/04 19:07:44;;;;;;;4.35;1.35;;;6.10;99.90;;;;;;4994772;28;20053;-58
2022/02/04 19:10:12;;;;;;;3.25;1.45;;;6.10;99.90;;;;;;4997470;28;20050;-58
2022/02/04 19:12:53;;;;;;;2.72;1.38;;;6.10;99.90;;;;;;5000181;28;20104;-58
2022/02/04 19:17:51;;;;;;;4.30;1.88;;;6.10;99.90;;;;;;5000105;28;20434;-58
2022/02/04 19:22:56;;;;;;;3.80;1.30;;;6.10;99.90;;;;;;4993864;28;20088;-58
2022/02/04 19:25:27;;;;;;;3.85;1.42;;;6.00;99.90;;;;;;4987174;28;20473;-58
2022/02/04 19:27:53;;;;;;;4.88;1.30;;;6.00;99.90;;;;;;4999903;28;20081;-57
2022/02/04 19:30:20;;;;;;;5.80;1.42;;;6.00;99.90;;;;;;4997856;28;20512;-57
2022/02/04 19:32:47;;;;;;;1.83;1.05;;;6.00;99.90;;;;;;4998159;28;20134;-58
2022/02/04 19:35:14;;;;;;;5.22;1.20;;;6.00;99.90;;;;;;4996381;28;20086;-58
2022/02/04 19:37:40;;;;;;;2.53;1.30;;;6.00;99.90;;;;;;5000063;28;20152;-58
2022/02/04 19:40:08;;;;;;;3.35;1.30;;;5.90;99.90;;;;;;4990266;28;20142;-57
2022/02/04 19:42:38;;;;;;;3.95;1.98;;;5.90;99.90;;;;;;4981950;28;20112;-57
2022/02/04 19:45:13;;;;;;;4.05;1.73;;;5.90;99.90;;;;;;4997586;28;20133;-59
2022/02/04 19:47:51;;;;;;;4.78;1.20;;;5.90;99.90;;;;;;4997307;28;20133;-57
2022/02/04 19:50:28;;;;;;;3.33;1.45;;;5.90;99.90;;;;;;4997162;28;20046;-57
2022/02/04 20:25:04;;;;;;;3.53;1.25;;;5.60;99.90;;;;;;4998684;28;20128;-55
2022/02/04 20:27:33;;;;;;;3.35;1.52;;;5.60;99.90;;;;;;5010920;28;20045;-58
2022/02/04 20:30:00;;;;;;;5.43;1.90;;;5.50;99.90;;;;;;5020863;28;20049;-57
2022/02/04 20:32:27;;;;;;;4.68;1.30;;;5.50;99.90;;;;;;5021329;28;20145;-57
2022/02/04 20:34:54;;;;;;;4.80;1.25;;;5.50;99.90;;;;;;5004156;28;20129;-58
2022/02/04 20:37:21;;;;;;;6.15;2.70;;;5.50;99.90;;;;;;5003366;28;20085;-57
2022/02/04 20:39:56;;;;;;;4.40;1.35;;;5.50;99.90;;;;;;5012932;28;20096;-58
2022/02/04 20:42:23;;;;;;;4.35;1.58;;;5.50;99.90;;;;;;4998751;28;20050;-57
2022/02/04 20:44:50;;;;;;;5.75;1.55;;;5.50;99.90;;;;;;4992598;28;20105;-58
2022/02/04 20:47:22;;;;;;;5.55;2.30;;;5.50;99.90;;;;;;5007475;28;20132;-58
2022/02/04 20:49:51;;;;;;;4.72;1.60;;;5.40;99.90;;;;;;5021951;28;20056;-57
2022/02/04 20:52:21;;;;;;;5.75;1.67;;;5.50;99.90;;;;;;5008788;28;20097;-61
2022/02/04 20:54:47;;;;;;;7.10;1.60;;;5.40;99.90;;;;;;5001927;28;20070;-58
2022/02/04 20:57:15;;;;;;;4.60;1.55;;;5.40;99.90;;;;;;5001233;28;20053;-58
2022/02/04 20:59:45;;;;;;;4.68;1.55;;;5.40;99.90;;;;;;5000072;28;20181;-58